sensor_id;sensor_type;location;lat;lon;timestamp;P1;durP1;ratioP1;P2;durP2;ratioP2
37477;SDS011;23334;54.316;10.182;2023-01-01T00:00:39;12.23;;;5.83;;
37477;SDS011;23334;54.316;10.182;2023-01-01T00:03:05;10.93;;;5.50;;
37477;SDS011;23334;54.316;10.182;2023-01-01T00:05:30;15.07;;;6.67;;
37477;SDS011;23334;54.316;10.182;2023-01-01T00:07:56;7.53;;;5.40;;
37477;SDS011;23334;54.316;10.182;2023-01-01T00:10:22;10.20;;;5.80;;
37477;SDS011;23334;54.316;10.182;2023-01-01T00:12:57;15.53;;;6.53;;
37477;SDS011;23334;54.316;10.182;2023-01-01T00:15:24;12.10;;;6.80;;
37477;SDS011;23334;54.316;10.182;2023-01-01T00:17:51;14.03;;;6.10;;
37477;SDS011;23334;54.316;10.182;2023-01-01T00:20:17;14.13;;;5.73;;
37477;SDS011;23334;54.316;10.182;2023-01-01T00:22:43;13.53;;;6.27;;
37477;SDS011;23334;54.316;10.182;2023-01-01T00:25:09;13.97;;;6.57;;
37477;SDS011;23334;54.316;10.182;2023-01-01T00:27:37;18.47;;;6.63;;
37477;SDS011;23334;54.316;10.182;2023-01-01T00:30:03;9.97;;;5.03;;
37477;SDS011;23334;54.316;10.182;2023-01-01T00:32:29;12.90;;;5.33;;
37477;SDS011;23334;54.316;10.182;2023-01-01T00:34:54;8.17;;;4.37;;
37477;SDS011;23334;54.316;10.182;2023-01-01T00:37:20;8.80;;;5.10;;
37477;SDS011;23334;54.316;10.182;2023-01-01T00:39:46;9.83;;;4.33;;
37477;SDS011;23334;54.316;10.182;2023-01-01T00:42:12;11.87;;;5.70;;
37477;SDS011;23334;54.316;10.182;2023-01-01T00:44:38;11.70;;;4.83;;
37477;SDS011;23334;54.316;10.182;2023-01-01T00:47:04;11.77;;;4.87;;
37477;SDS011;23334;54.316;10.182;2023-01-01T00:49:30;11.63;;;5.07;;
37477;SDS011;23334;54.316;10.182;2023-01-01T00:51:55;12.40;;;5.47;;
37477;SDS011;23334;54.316;10.182;2023-01-01T00:54:21;10.00;;;5.47;;
37477;SDS011;23334;54.316;10.182;2023-01-01T00:56:46;12.10;;;4.77;;
37477;SDS011;23334;54.316;10.182;2023-01-01T00:59:12;15.23;;;5.40;;
37477;SDS011;23334;54.316;10.182;2023-01-01T01:01:37;12.57;;;5.67;;
37477;SDS011;23334;54.316;10.182;2023-01-01T01:04:05;8.80;;;5.17;;
37477;SDS011;23334;54.316;10.182;2023-01-01T01:06:31;13.70;;;5.07;;
37477;SDS011;23334;54.316;10.182;2023-01-01T01:08:57;13.20;;;4.93;;
37477;SDS011;23334;54.316;10.182;2023-01-01T01:11:23;13.87;;;5.37;;
37477;SDS011;23334;54.316;10.182;2023-01-01T01:13:50;8.47;;;5.17;;
37477;SDS011;23334;54.316;10.182;2023-01-01T01:16:19;8.57;;;5.37;;
37477;SDS011;23334;54.316;10.182;2023-01-01T01:18:53;14.33;;;6.53;;
37477;SDS011;23334;54.316;10.182;2023-01-01T01:21:21;14.43;;;6.07;;
37477;SDS011;23334;54.316;10.182;2023-01-01T01:23:48;10.90;;;5.40;;
37477;SDS011;23334;54.316;10.182;2023-01-01T01:26:16;10.53;;;5.60;;
37477;SDS011;23334;54.316;10.182;2023-01-01T01:28:43;11.27;;;5.93;;
37477;SDS011;23334;54.316;10.182;2023-01-01T01:31:09;12.10;;;5.83;;
37477;SDS011;23334;54.316;10.182;2023-01-01T01:33:35;12.10;;;5.20;;
37477;SDS011;23334;54.316;10.182;2023-01-01T01:36:01;9.00;;;4.30;;
37477;SDS011;23334;54.316;10.182;2023-01-01T01:38:28;9.10;;;4.90;;
37477;SDS011;23334;54.316;10.182;2023-01-01T01:40:54;13.90;;;4.50;;
37477;SDS011;23334;54.316;10.182;2023-01-01T01:43:21;10.30;;;5.20;;
37477;SDS011;23334;54.316;10.182;2023-01-01T01:45:49;15.10;;;4.80;;
37477;SDS011;23334;54.316;10.182;2023-01-01T01:48:17;11.10;;;4.43;;
37477;SDS011;23334;54.316;10.182;2023-01-01T01:50:43;12.60;;;5.30;;
37477;SDS011;23334;54.316;10.182;2023-01-01T01:53:16;11.07;;;4.60;;
37477;SDS011;23334;54.316;10.182;2023-01-01T01:55:52;14.83;;;5.00;;
37477;SDS011;23334;54.316;10.182;2023-01-01T01:58:21;11.07;;;4.17;;
37477;SDS011;23334;54.316;10.182;2023-01-01T02:00:48;14.30;;;5.13;;
37477;SDS011;23334;54.316;10.182;2023-01-01T02:03:19;12.97;;;5.10;;
37477;SDS011;23334;54.316;10.182;2023-01-01T02:05:57;8.77;;;4.93;;
37477;SDS011;23334;54.316;10.182;2023-01-01T02:08:23;13.47;;;5.67;;
37477;SDS011;23334;54.316;10.182;2023-01-01T02:10:50;8.80;;;4.73;;
37477;SDS011;23334;54.316;10.182;2023-01-01T02:13:16;18.70;;;6.70;;
37477;SDS011;23334;54.316;10.182;2023-01-01T02:15:46;6.20;;;4.80;;
37477;SDS011;23334;54.316;10.182;2023-01-01T02:18:18;13.20;;;5.73;;
37477;SDS011;23334;54.316;10.182;2023-01-01T02:26:08;12.20;;;5.57;;
37477;SDS011;23334;54.316;10.182;2023-01-01T02:28:57;13.17;;;5.33;;
37477;SDS011;23334;54.316;10.182;2023-01-01T02:31:25;6.50;;;5.20;;
37477;SDS011;23334;54.316;10.182;2023-01-01T02:33:54;16.47;;;5.07;;
37477;SDS011;23334;54.316;10.182;2023-01-01T02:36:24;7.67;;;5.20;;
37477;SDS011;23334;54.316;10.182;2023-01-01T02:38:53;9.43;;;5.83;;
37477;SDS011;23334;54.316;10.182;2023-01-01T02:41:22;13.00;;;6.13;;
37477;SDS011;23334;54.316;10.182;2023-01-01T02:43:51;12.90;;;5.33;;
37477;SDS011;23334;54.316;10.182;2023-01-01T02:46:17;8.60;;;4.80;;
37477;SDS011;23334;54.316;10.182;2023-01-01T02:48:47;14.63;;;6.40;;
37477;SDS011;23334;54.316;10.182;2023-01-01T03:09:11;13.23;;;6.97;;
37477;SDS011;23334;54.316;10.182;2023-01-01T03:11:39;24.90;;;6.80;;
37477;SDS011;23334;54.316;10.182;2023-01-01T03:14:17;11.27;;;5.30;;
37477;SDS011;23334;54.316;10.182;2023-01-01T03:17:02;20.60;;;7.33;;
37477;SDS011;23334;54.316;10.182;2023-01-01T03:19:38;10.83;;;6.50;;
37477;SDS011;23334;54.316;10.182;2023-01-01T03:22:06;14.40;;;6.67;;
37477;SDS011;23334;54.316;10.182;2023-01-01T03:27:22;14.10;;;6.40;;
37477;SDS011;23334;54.316;10.182;2023-01-01T03:29:53;15.40;;;8.00;;
37477;SDS011;23334;54.316;10.182;2023-01-01T03:32:21;15.03;;;8.93;;
37477;SDS011;23334;54.316;10.182;2023-01-01T03:35:10;19.83;;;8.23;;
37477;SDS011;23334;54.316;10.182;2023-01-01T03:37:37;16.07;;;9.07;;
37477;SDS011;23334;54.316;10.182;2023-01-01T03:40:04;14.27;;;7.90;;
37477;SDS011;23334;54.316;10.182;2023-01-01T03:42:37;21.30;;;8.73;;
37477;SDS011;23334;54.316;10.182;2023-01-01T03:45:06;18.83;;;9.30;;
37477;SDS011;23334;54.316;10.182;2023-01-01T03:47:37;25.83;;;9.07;;
37477;SDS011;23334;54.316;10.182;2023-01-01T03:50:03;20.90;;;10.10;;
37477;SDS011;23334;54.316;10.182;2023-01-01T03:52:31;22.33;;;10.30;;
37477;SDS011;23334;54.316;10.182;2023-01-01T03:55:32;21.73;;;10.27;;
37477;SDS011;23334;54.316;10.182;2023-01-01T03:58:19;24.27;;;11.20;;
37477;SDS011;23334;54.316;10.182;2023-01-01T04:00:58;21.93;;;12.90;;
37477;SDS011;23334;54.316;10.182;2023-01-01T04:03:32;28.80;;;14.47;;
37477;SDS011;23334;54.316;10.182;2023-01-01T04:06:00;36.90;;;13.07;;
37477;SDS011;23334;54.316;10.182;2023-01-01T04:08:27;23.83;;;13.50;;
37477;SDS011;23334;54.316;10.182;2023-01-01T04:10:56;22.00;;;13.60;;
37477;SDS011;23334;54.316;10.182;2023-01-01T04:13:24;27.83;;;14.93;;
37477;SDS011;23334;54.316;10.182;2023-01-01T04:15:50;28.20;;;14.17;;
37477;SDS011;23334;54.316;10.182;2023-01-01T04:18:15;24.37;;;14.87;;
37477;SDS011;23334;54.316;10.182;2023-01-01T04:20:41;26.60;;;15.37;;
37477;SDS011;23334;54.316;10.182;2023-01-01T04:23:06;28.53;;;15.87;;
37477;SDS011;23334;54.316;10.182;2023-01-01T04:25:32;26.77;;;15.80;;
37477;SDS011;23334;54.316;10.182;2023-01-01T04:27:58;38.80;;;16.17;;
37477;SDS011;23334;54.316;10.182;2023-01-01T04:30:27;28.10;;;15.73;;
37477;SDS011;23334;54.316;10.182;2023-01-01T04:32:53;26.27;;;16.50;;
37477;SDS011;23334;54.316;10.182;2023-01-01T04:35:19;28.87;;;17.73;;
37477;SDS011;23334;54.316;10.182;2023-01-01T04:37:45;25.60;;;16.67;;
37477;SDS011;23334;54.316;10.182;2023-01-01T04:40:11;31.93;;;17.43;;
37477;SDS011;23334;54.316;10.182;2023-01-01T04:42:38;34.20;;;17.77;;
37477;SDS011;23334;54.316;10.182;2023-01-01T04:45:03;34.67;;;18.53;;
37477;SDS011;23334;54.316;10.182;2023-01-01T04:47:29;36.77;;;14.57;;
37477;SDS011;23334;54.316;10.182;2023-01-01T04:49:55;30.67;;;17.63;;
37477;SDS011;23334;54.316;10.182;2023-01-01T04:52:20;32.30;;;16.70;;
37477;SDS011;23334;54.316;10.182;2023-01-01T04:54:46;29.50;;;16.60;;
37477;SDS011;23334;54.316;10.182;2023-01-01T04:57:11;26.83;;;14.47;;
37477;SDS011;23334;54.316;10.182;2023-01-01T04:59:37;29.93;;;15.70;;
37477;SDS011;23334;54.316;10.182;2023-01-01T05:02:03;29.17;;;15.33;;
37477;SDS011;23334;54.316;10.182;2023-01-01T05:04:29;22.00;;;12.97;;
37477;SDS011;23334;54.316;10.182;2023-01-01T05:06:55;26.93;;;13.90;;
37477;SDS011;23334;54.316;10.182;2023-01-01T05:09:20;26.03;;;13.90;;
37477;SDS011;23334;54.316;10.182;2023-01-01T05:11:46;28.40;;;14.70;;
37477;SDS011;23334;54.316;10.182;2023-01-01T05:14:12;25.40;;;14.13;;
37477;SDS011;23334;54.316;10.182;2023-01-01T05:16:38;26.30;;;13.13;;
37477;SDS011;23334;54.316;10.182;2023-01-01T05:19:04;23.83;;;15.33;;
37477;SDS011;23334;54.316;10.182;2023-01-01T05:21:32;35.43;;;15.47;;
37477;SDS011;23334;54.316;10.182;2023-01-01T05:23:59;31.20;;;15.10;;
37477;SDS011;23334;54.316;10.182;2023-01-01T05:26:30;30.40;;;15.03;;
37477;SDS011;23334;54.316;10.182;2023-01-01T05:28:58;30.40;;;16.80;;
37477;SDS011;23334;54.316;10.182;2023-01-01T05:31:25;30.30;;;17.17;;
37477;SDS011;23334;54.316;10.182;2023-01-01T05:33:52;35.83;;;18.33;;
37477;SDS011;23334;54.316;10.182;2023-01-01T05:36:19;33.17;;;17.70;;
37477;SDS011;23334;54.316;10.182;2023-01-01T05:38:47;29.73;;;16.70;;
37477;SDS011;23334;54.316;10.182;2023-01-01T05:41:13;30.03;;;17.07;;
37477;SDS011;23334;54.316;10.182;2023-01-01T05:43:40;37.00;;;17.57;;
37477;SDS011;23334;54.316;10.182;2023-01-01T05:46:07;30.03;;;16.87;;
37477;SDS011;23334;54.316;10.182;2023-01-01T05:48:35;33.30;;;16.70;;
37477;SDS011;23334;54.316;10.182;2023-01-01T05:51:08;29.20;;;15.83;;
37477;SDS011;23334;54.316;10.182;2023-01-01T05:53:36;31.37;;;16.23;;
37477;SDS011;23334;54.316;10.182;2023-01-01T05:56:01;29.87;;;14.80;;
37477;SDS011;23334;54.316;10.182;2023-01-01T05:58:28;25.27;;;15.10;;
37477;SDS011;23334;54.316;10.182;2023-01-01T06:00:55;33.73;;;14.73;;
37477;SDS011;23334;54.316;10.182;2023-01-01T06:03:20;26.53;;;14.30;;
37477;SDS011;23334;54.316;10.182;2023-01-01T06:05:46;27.93;;;14.00;;
37477;SDS011;23334;54.316;10.182;2023-01-01T06:08:12;29.87;;;13.17;;
37477;SDS011;23334;54.316;10.182;2023-01-01T06:10:38;20.73;;;13.43;;
37477;SDS011;23334;54.316;10.182;2023-01-01T06:13:03;23.20;;;12.27;;
37477;SDS011;23334;54.316;10.182;2023-01-01T06:15:29;21.67;;;11.20;;
37477;SDS011;23334;54.316;10.182;2023-01-01T06:17:56;28.23;;;12.23;;
37477;SDS011;23334;54.316;10.182;2023-01-01T06:20:22;22.17;;;11.50;;
37477;SDS011;23334;54.316;10.182;2023-01-01T06:22:47;20.73;;;11.67;;
37477;SDS011;23334;54.316;10.182;2023-01-01T06:25:13;21.03;;;11.33;;
37477;SDS011;23334;54.316;10.182;2023-01-01T06:27:38;17.43;;;9.13;;
37477;SDS011;23334;54.316;10.182;2023-01-01T06:30:04;22.50;;;9.43;;
37477;SDS011;23334;54.316;10.182;2023-01-01T06:32:31;17.80;;;9.33;;
37477;SDS011;23334;54.316;10.182;2023-01-01T06:34:56;16.83;;;8.73;;
37477;SDS011;23334;54.316;10.182;2023-01-01T06:37:22;14.73;;;8.20;;
37477;SDS011;23334;54.316;10.182;2023-01-01T06:39:47;11.77;;;7.47;;
37477;SDS011;23334;54.316;10.182;2023-01-01T06:42:13;9.40;;;6.80;;
37477;SDS011;23334;54.316;10.182;2023-01-01T06:44:39;8.40;;;6.00;;
37477;SDS011;23334;54.316;10.182;2023-01-01T06:47:05;6.73;;;5.20;;
37477;SDS011;23334;54.316;10.182;2023-01-01T06:49:31;11.03;;;6.10;;
37477;SDS011;23334;54.316;10.182;2023-01-01T06:51:56;12.90;;;5.77;;
37477;SDS011;23334;54.316;10.182;2023-01-01T06:54:22;9.63;;;4.60;;
37477;SDS011;23334;54.316;10.182;2023-01-01T06:56:47;4.93;;;4.43;;
37477;SDS011;23334;54.316;10.182;2023-01-01T06:59:14;6.87;;;4.00;;
37477;SDS011;23334;54.316;10.182;2023-01-01T07:01:40;9.67;;;4.43;;
37477;SDS011;23334;54.316;10.182;2023-01-01T07:04:06;8.10;;;4.20;;
37477;SDS011;23334;54.316;10.182;2023-01-01T07:06:34;6.90;;;3.70;;
37477;SDS011;23334;54.316;10.182;2023-01-01T07:09:00;5.07;;;3.93;;
37477;SDS011;23334;54.316;10.182;2023-01-01T07:11:26;7.93;;;4.33;;
37477;SDS011;23334;54.316;10.182;2023-01-01T07:13:52;4.07;;;3.70;;
37477;SDS011;23334;54.316;10.182;2023-01-01T07:16:18;5.40;;;4.80;;
37477;SDS011;23334;54.316;10.182;2023-01-01T07:18:44;5.20;;;4.00;;
37477;SDS011;23334;54.316;10.182;2023-01-01T07:21:20;7.40;;;3.93;;
37477;SDS011;23334;54.316;10.182;2023-01-01T07:23:59;6.90;;;4.03;;
37477;SDS011;23334;54.316;10.182;2023-01-01T07:26:26;9.53;;;4.90;;
37477;SDS011;23334;54.316;10.182;2023-01-01T07:28:53;10.17;;;4.87;;
37477;SDS011;23334;54.316;10.182;2023-01-01T07:31:18;10.60;;;3.93;;
37477;SDS011;23334;54.316;10.182;2023-01-01T07:33:44;9.93;;;4.40;;
37477;SDS011;23334;54.316;10.182;2023-01-01T07:36:10;10.90;;;3.50;;
37477;SDS011;23334;54.316;10.182;2023-01-01T07:38:35;11.10;;;3.90;;
37477;SDS011;23334;54.316;10.182;2023-01-01T07:41:01;12.47;;;4.30;;
37477;SDS011;23334;54.316;10.182;2023-01-01T07:43:27;9.73;;;4.37;;
37477;SDS011;23334;54.316;10.182;2023-01-01T07:45:53;4.53;;;3.80;;
37477;SDS011;23334;54.316;10.182;2023-01-01T07:48:18;7.23;;;4.40;;
37477;SDS011;23334;54.316;10.182;2023-01-01T07:50:44;6.30;;;4.70;;
37477;SDS011;23334;54.316;10.182;2023-01-01T07:53:09;5.57;;;4.10;;
37477;SDS011;23334;54.316;10.182;2023-01-01T07:55:35;16.30;;;5.10;;
37477;SDS011;23334;54.316;10.182;2023-01-01T07:58:01;6.13;;;3.63;;
37477;SDS011;23334;54.316;10.182;2023-01-01T08:00:27;8.83;;;3.50;;
37477;SDS011;23334;54.316;10.182;2023-01-01T08:02:53;9.03;;;3.57;;
37477;SDS011;23334;54.316;10.182;2023-01-01T08:05:19;8.50;;;4.40;;
37477;SDS011;23334;54.316;10.182;2023-01-01T08:07:45;8.33;;;3.83;;
37477;SDS011;23334;54.316;10.182;2023-01-01T08:10:12;4.93;;;3.30;;
37477;SDS011;23334;54.316;10.182;2023-01-01T08:12:38;18.20;;;4.87;;
37477;SDS011;23334;54.316;10.182;2023-01-01T08:15:04;9.60;;;4.10;;
37477;SDS011;23334;54.316;10.182;2023-01-01T08:17:29;9.13;;;3.60;;
37477;SDS011;23334;54.316;10.182;2023-01-01T08:19:55;7.70;;;3.97;;
37477;SDS011;23334;54.316;10.182;2023-01-01T08:22:20;11.23;;;3.97;;
37477;SDS011;23334;54.316;10.182;2023-01-01T08:24:46;8.77;;;4.10;;
37477;SDS011;23334;54.316;10.182;2023-01-01T08:27:15;9.73;;;3.60;;
37477;SDS011;23334;54.316;10.182;2023-01-01T08:29:43;4.30;;;3.17;;
37477;SDS011;23334;54.316;10.182;2023-01-01T08:32:09;6.40;;;3.77;;
37477;SDS011;23334;54.316;10.182;2023-01-01T08:34:36;8.90;;;3.50;;
37477;SDS011;23334;54.316;10.182;2023-01-01T08:37:02;4.83;;;3.77;;
37477;SDS011;23334;54.316;10.182;2023-01-01T08:39:27;10.17;;;4.13;;
37477;SDS011;23334;54.316;10.182;2023-01-01T08:41:53;6.23;;;4.00;;
37477;SDS011;23334;54.316;10.182;2023-01-01T08:44:18;9.93;;;3.80;;
37477;SDS011;23334;54.316;10.182;2023-01-01T08:46:44;11.90;;;4.07;;
37477;SDS011;23334;54.316;10.182;2023-01-01T08:49:10;6.70;;;3.83;;
37477;SDS011;23334;54.316;10.182;2023-01-01T08:51:35;13.43;;;3.50;;
37477;SDS011;23334;54.316;10.182;2023-01-01T08:54:01;8.57;;;4.03;;
37477;SDS011;23334;54.316;10.182;2023-01-01T08:56:27;7.90;;;3.63;;
37477;SDS011;23334;54.316;10.182;2023-01-01T08:58:53;9.50;;;3.67;;
37477;SDS011;23334;54.316;10.182;2023-01-01T09:01:18;12.53;;;3.27;;
37477;SDS011;23334;54.316;10.182;2023-01-01T09:03:45;6.17;;;3.40;;
37477;SDS011;23334;54.316;10.182;2023-01-01T09:06:11;7.83;;;2.90;;
37477;SDS011;23334;54.316;10.182;2023-01-01T09:08:37;7.77;;;3.20;;
37477;SDS011;23334;54.316;10.182;2023-01-01T09:11:03;6.43;;;2.30;;
37477;SDS011;23334;54.316;10.182;2023-01-01T09:13:30;6.53;;;2.50;;
37477;SDS011;23334;54.316;10.182;2023-01-01T09:15:56;3.37;;;2.57;;
37477;SDS011;23334;54.316;10.182;2023-01-01T09:18:22;7.43;;;2.80;;
37477;SDS011;23334;54.316;10.182;2023-01-01T09:20:48;2.13;;;1.87;;
37477;SDS011;23334;54.316;10.182;2023-01-01T09:23:14;2.30;;;1.80;;
37477;SDS011;23334;54.316;10.182;2023-01-01T09:25:39;4.33;;;2.13;;
37477;SDS011;23334;54.316;10.182;2023-01-01T09:28:06;2.17;;;1.93;;
37477;SDS011;23334;54.316;10.182;2023-01-01T09:30:34;7.03;;;2.17;;
37477;SDS011;23334;54.316;10.182;2023-01-01T09:33:00;17.43;;;2.10;;
37477;SDS011;23334;54.316;10.182;2023-01-01T09:35:26;3.87;;;2.00;;
37477;SDS011;23334;54.316;10.182;2023-01-01T09:37:52;1.70;;;1.60;;
37477;SDS011;23334;54.316;10.182;2023-01-01T09:43:32;9.07;;;2.20;;
37477;SDS011;23334;54.316;10.182;2023-01-01T09:46:14;4.27;;;1.43;;
37477;SDS011;23334;54.316;10.182;2023-01-01T09:48:40;5.20;;;2.20;;
37477;SDS011;23334;54.316;10.182;2023-01-01T09:51:16;2.43;;;1.40;;
37477;SDS011;23334;54.316;10.182;2023-01-01T09:57:06;5.10;;;1.87;;
37477;SDS011;23334;54.316;10.182;2023-01-01T09:59:35;1.90;;;1.23;;
37477;SDS011;23334;54.316;10.182;2023-01-01T10:04:59;4.03;;;1.87;;
37477;SDS011;23334;54.316;10.182;2023-01-01T10:07:33;4.27;;;1.83;;
37477;SDS011;23334;54.316;10.182;2023-01-01T10:10:19;4.43;;;1.27;;
37477;SDS011;23334;54.316;10.182;2023-01-01T10:13:14;8.20;;;2.10;;
37477;SDS011;23334;54.316;10.182;2023-01-01T10:15:57;1.77;;;1.10;;
37477;SDS011;23334;54.316;10.182;2023-01-01T10:18:28;5.03;;;1.80;;
37477;SDS011;23334;54.316;10.182;2023-01-01T10:23:39;7.10;;;1.37;;
37477;SDS011;23334;54.316;10.182;2023-01-01T10:26:15;3.70;;;1.27;;
37477;SDS011;23334;54.316;10.182;2023-01-01T10:28:48;8.37;;;1.57;;
37477;SDS011;23334;54.316;10.182;2023-01-01T10:31:36;6.90;;;1.60;;
37477;SDS011;23334;54.316;10.182;2023-01-01T10:34:23;3.50;;;1.33;;
37477;SDS011;23334;54.316;10.182;2023-01-01T10:36:53;15.70;;;3.47;;
37477;SDS011;23334;54.316;10.182;2023-01-01T10:39:20;4.73;;;2.50;;
37477;SDS011;23334;54.316;10.182;2023-01-01T10:41:47;4.20;;;1.60;;
37477;SDS011;23334;54.316;10.182;2023-01-01T10:44:14;7.43;;;2.03;;
37477;SDS011;23334;54.316;10.182;2023-01-01T10:46:45;5.90;;;1.67;;
37477;SDS011;23334;54.316;10.182;2023-01-01T10:49:14;3.17;;;1.40;;
37477;SDS011;23334;54.316;10.182;2023-01-01T10:51:47;3.27;;;1.40;;
37477;SDS011;23334;54.316;10.182;2023-01-01T10:54:30;15.93;;;1.80;;
37477;SDS011;23334;54.316;10.182;2023-01-01T10:56:59;8.00;;;1.43;;
37477;SDS011;23334;54.316;10.182;2023-01-01T10:59:39;5.77;;;1.97;;
37477;SDS011;23334;54.316;10.182;2023-01-01T11:02:07;7.73;;;2.07;;
37477;SDS011;23334;54.316;10.182;2023-01-01T11:04:40;5.27;;;1.20;;
37477;SDS011;23334;54.316;10.182;2023-01-01T11:07:06;9.87;;;2.00;;
37477;SDS011;23334;54.316;10.182;2023-01-01T11:09:32;13.83;;;1.67;;
37477;SDS011;23334;54.316;10.182;2023-01-01T11:12:04;7.33;;;1.80;;
37477;SDS011;23334;54.316;10.182;2023-01-01T11:14:36;6.97;;;1.67;;
37477;SDS011;23334;54.316;10.182;2023-01-01T11:17:04;13.73;;;1.87;;
37477;SDS011;23334;54.316;10.182;2023-01-01T11:21:58;12.83;;;2.07;;
37477;SDS011;23334;54.316;10.182;2023-01-01T11:26:50;6.00;;;1.50;;
37477;SDS011;23334;54.316;10.182;2023-01-01T11:29:18;15.07;;;2.23;;
37477;SDS011;23334;54.316;10.182;2023-01-01T11:31:48;7.70;;;2.17;;
37477;SDS011;23334;54.316;10.182;2023-01-01T11:39:40;5.40;;;2.00;;
37477;SDS011;23334;54.316;10.182;2023-01-01T11:42:23;4.40;;;1.53;;
37477;SDS011;23334;54.316;10.182;2023-01-01T11:44:52;8.00;;;1.53;;
37477;SDS011;23334;54.316;10.182;2023-01-01T11:47:27;8.10;;;1.57;;
37477;SDS011;23334;54.316;10.182;2023-01-01T11:49:56;5.40;;;0.93;;
37477;SDS011;23334;54.316;10.182;2023-01-01T11:52:28;8.73;;;1.70;;
37477;SDS011;23334;54.316;10.182;2023-01-01T11:55:10;7.77;;;1.77;;
37477;SDS011;23334;54.316;10.182;2023-01-01T11:57:43;5.80;;;1.63;;
37477;SDS011;23334;54.316;10.182;2023-01-01T12:00:16;8.93;;;3.10;;
37477;SDS011;23334;54.316;10.182;2023-01-01T12:02:53;6.93;;;2.60;;
37477;SDS011;23334;54.316;10.182;2023-01-01T12:05:25;5.53;;;1.33;;
37477;SDS011;23334;54.316;10.182;2023-01-01T12:08:02;9.03;;;2.40;;
37477;SDS011;23334;54.316;10.182;2023-01-01T12:10:43;7.73;;;1.90;;
37477;SDS011;23334;54.316;10.182;2023-01-01T12:13:14;7.20;;;1.67;;
37477;SDS011;23334;54.316;10.182;2023-01-01T12:16:01;11.03;;;1.97;;
37477;SDS011;23334;54.316;10.182;2023-01-01T12:18:36;14.93;;;2.27;;
37477;SDS011;23334;54.316;10.182;2023-01-01T12:21:18;7.50;;;1.80;;
37477;SDS011;23334;54.316;10.182;2023-01-01T12:23:49;7.67;;;2.40;;
37477;SDS011;23334;54.316;10.182;2023-01-01T12:26:22;11.63;;;2.97;;
37477;SDS011;23334;54.316;10.182;2023-01-01T12:34:40;11.67;;;2.20;;
37477;SDS011;23334;54.316;10.182;2023-01-01T12:37:28;9.40;;;1.90;;
37477;SDS011;23334;54.316;10.182;2023-01-01T12:43:11;12.60;;;1.73;;
37477;SDS011;23334;54.316;10.182;2023-01-01T12:46:14;9.73;;;1.90;;
37477;SDS011;23334;54.316;10.182;2023-01-01T12:51:48;10.80;;;2.13;;
37477;SDS011;23334;54.316;10.182;2023-01-01T12:54:32;13.30;;;2.87;;
37477;SDS011;23334;54.316;10.182;2023-01-01T12:57:12;8.57;;;2.20;;
37477;SDS011;23334;54.316;10.182;2023-01-01T12:59:46;9.37;;;2.40;;
37477;SDS011;23334;54.316;10.182;2023-01-01T13:02:16;7.23;;;1.90;;
37477;SDS011;23334;54.316;10.182;2023-01-01T13:04:46;8.30;;;1.80;;
37477;SDS011;23334;54.316;10.182;2023-01-01T13:07:15;6.73;;;1.47;;
37477;SDS011;23334;54.316;10.182;2023-01-01T13:09:47;10.43;;;2.20;;
37477;SDS011;23334;54.316;10.182;2023-01-01T13:12:14;8.93;;;2.23;;
37477;SDS011;23334;54.316;10.182;2023-01-01T13:14:43;7.30;;;1.90;;
37477;SDS011;23334;54.316;10.182;2023-01-01T13:17:17;6.37;;;2.63;;
37477;SDS011;23334;54.316;10.182;2023-01-01T13:19:57;9.67;;;1.70;;
37477;SDS011;23334;54.316;10.182;2023-01-01T13:25:02;10.50;;;1.80;;
37477;SDS011;23334;54.316;10.182;2023-01-01T13:38:53;7.83;;;1.50;;
37477;SDS011;23334;54.316;10.182;2023-01-01T13:41:30;8.63;;;2.20;;
37477;SDS011;23334;54.316;10.182;2023-01-01T13:57:58;9.27;;;3.23;;
37477;SDS011;23334;54.316;10.182;2023-01-01T14:03:50;14.40;;;2.13;;
37477;SDS011;23334;54.316;10.182;2023-01-01T14:06:25;6.07;;;1.77;;
37477;SDS011;23334;54.316;10.182;2023-01-01T14:09:00;10.90;;;1.90;;
37477;SDS011;23334;54.316;10.182;2023-01-01T14:11:35;6.40;;;1.83;;
37477;SDS011;23334;54.316;10.182;2023-01-01T14:14:02;6.70;;;1.50;;
37477;SDS011;23334;54.316;10.182;2023-01-01T14:16:49;7.50;;;1.67;;
37477;SDS011;23334;54.316;10.182;2023-01-01T14:19:15;7.00;;;2.27;;
37477;SDS011;23334;54.316;10.182;2023-01-01T14:21:41;16.10;;;2.03;;
37477;SDS011;23334;54.316;10.182;2023-01-01T14:24:09;8.13;;;2.00;;
37477;SDS011;23334;54.316;10.182;2023-01-01T14:26:40;15.93;;;1.50;;
37477;SDS011;23334;54.316;10.182;2023-01-01T14:29:06;6.17;;;2.17;;
37477;SDS011;23334;54.316;10.182;2023-01-01T14:31:33;4.03;;;1.70;;
37477;SDS011;23334;54.316;10.182;2023-01-01T14:34:12;10.30;;;2.17;;
37477;SDS011;23334;54.316;10.182;2023-01-01T14:36:47;10.00;;;1.70;;
37477;SDS011;23334;54.316;10.182;2023-01-01T14:39:27;7.03;;;1.67;;
37477;SDS011;23334;54.316;10.182;2023-01-01T14:42:11;8.33;;;1.67;;
37477;SDS011;23334;54.316;10.182;2023-01-01T14:44:44;6.83;;;2.20;;
37477;SDS011;23334;54.316;10.182;2023-01-01T14:47:18;8.83;;;1.57;;
37477;SDS011;23334;54.316;10.182;2023-01-01T14:49:44;7.37;;;2.07;;
37477;SDS011;23334;54.316;10.182;2023-01-01T14:52:13;5.23;;;1.87;;
37477;SDS011;23334;54.316;10.182;2023-01-01T14:54:47;8.30;;;2.90;;
37477;SDS011;23334;54.316;10.182;2023-01-01T14:57:14;11.80;;;1.90;;
37477;SDS011;23334;54.316;10.182;2023-01-01T14:59:47;7.37;;;1.40;;
37477;SDS011;23334;54.316;10.182;2023-01-01T15:02:22;6.97;;;2.00;;
37477;SDS011;23334;54.316;10.182;2023-01-01T15:04:53;7.77;;;1.67;;
37477;SDS011;23334;54.316;10.182;2023-01-01T15:07:22;9.20;;;1.80;;
37477;SDS011;23334;54.316;10.182;2023-01-01T15:09:53;6.30;;;2.17;;
37477;SDS011;23334;54.316;10.182;2023-01-01T15:12:20;14.27;;;1.90;;
37477;SDS011;23334;54.316;10.182;2023-01-01T15:14:48;9.20;;;2.30;;
37477;SDS011;23334;54.316;10.182;2023-01-01T15:17:16;11.37;;;2.43;;
37477;SDS011;23334;54.316;10.182;2023-01-01T15:19:43;18.83;;;2.23;;
37477;SDS011;23334;54.316;10.182;2023-01-01T15:22:15;8.90;;;3.00;;
37477;SDS011;23334;54.316;10.182;2023-01-01T15:24:47;9.40;;;2.30;;
37477;SDS011;23334;54.316;10.182;2023-01-01T15:27:23;15.33;;;3.83;;
37477;SDS011;23334;54.316;10.182;2023-01-01T15:29:54;11.47;;;2.97;;
37477;SDS011;23334;54.316;10.182;2023-01-01T15:32:27;7.00;;;3.63;;
37477;SDS011;23334;54.316;10.182;2023-01-01T15:34:58;12.37;;;3.10;;
37477;SDS011;23334;54.316;10.182;2023-01-01T15:37:32;9.00;;;2.40;;
37477;SDS011;23334;54.316;10.182;2023-01-01T15:42:39;22.93;;;2.07;;
37477;SDS011;23334;54.316;10.182;2023-01-01T15:50:30;7.67;;;2.83;;
37477;SDS011;23334;54.316;10.182;2023-01-01T15:53:02;12.03;;;2.17;;
37477;SDS011;23334;54.316;10.182;2023-01-01T15:55:34;10.90;;;1.70;;
37477;SDS011;23334;54.316;10.182;2023-01-01T15:58:05;20.77;;;13.00;;
37477;SDS011;23334;54.316;10.182;2023-01-01T16:00:32;7.60;;;2.30;;
37477;SDS011;23334;54.316;10.182;2023-01-01T16:03:12;11.67;;;2.73;;
37477;SDS011;23334;54.316;10.182;2023-01-01T16:05:46;10.93;;;2.37;;
37477;SDS011;23334;54.316;10.182;2023-01-01T16:08:14;6.10;;;1.70;;
37477;SDS011;23334;54.316;10.182;2023-01-01T16:10:41;4.13;;;2.47;;
37477;SDS011;23334;54.316;10.182;2023-01-01T16:13:07;15.83;;;5.20;;
37477;SDS011;23334;54.316;10.182;2023-01-01T16:15:32;11.03;;;2.40;;
37477;SDS011;23334;54.316;10.182;2023-01-01T16:17:59;6.07;;;2.03;;